sensor_id;sensor_type;location;lat;lon;timestamp;P1;durP1;ratioP1;P2;durP2;ratioP2
62707;SDS011;48769;51.624;5.886;2024-02-28T00:00:47;112.28;;;28.45;;
62707;SDS011;48769;51.624;5.886;2024-02-28T00:03:13;205.80;;;33.10;;
62707;SDS011;48769;51.624;5.886;2024-02-28T00:05:38;192.43;;;35.35;;
62707;SDS011;48769;51.624;5.886;2024-02-28T00:08:04;112.13;;;30.20;;
62707;SDS011;48769;51.624;5.886;2024-02-28T00:10:29;223.18;;;32.47;;
62707;SDS011;48769;51.624;5.886;2024-02-28T00:12:54;304.10;;;36.10;;
62707;SDS011;48769;51.624;5.886;2024-02-28T00:15:20;195.82;;;32.03;;
62707;SDS011;48769;51.624;5.886;2024-02-28T00:17:45;145.70;;;31.23;;
62707;SDS011;48769;51.624;5.886;2024-02-28T00:20:10;284.58;;;34.55;;
62707;SDS011;48769;51.624;5.886;2024-02-28T00:22:36;225.20;;;32.38;;
62707;SDS011;48769;51.624;5.886;2024-02-28T00:25:02;287.65;;;37.47;;
62707;SDS011;48769;51.624;5.886;2024-02-28T00:27:27;352.30;;;37.55;;
62707;SDS011;48769;51.624;5.886;2024-02-28T00:29:53;333.20;;;37.08;;
62707;SDS011;48769;51.624;5.886;2024-02-28T00:32:18;204.65;;;33.92;;
62707;SDS011;48769;51.624;5.886;2024-02-28T00:34:44;339.55;;;35.53;;
62707;SDS011;48769;51.624;5.886;2024-02-28T00:37:09;239.02;;;34.05;;
62707;SDS011;48769;51.624;5.886;2024-02-28T00:39:34;275.60;;;34.03;;
62707;SDS011;48769;51.624;5.886;2024-02-28T00:42:00;181.23;;;31.83;;
62707;SDS011;48769;51.624;5.886;2024-02-28T00:44:25;172.75;;;32.83;;
62707;SDS011;48769;51.624;5.886;2024-02-28T00:46:50;107.57;;;31.80;;
62707;SDS011;48769;51.624;5.886;2024-02-28T00:49:16;66.40;;;27.63;;
62707;SDS011;48769;51.624;5.886;2024-02-28T00:51:41;81.97;;;29.58;;
62707;SDS011;48769;51.624;5.886;2024-02-28T00:54:06;59.03;;;29.40;;
62707;SDS011;48769;51.624;5.886;2024-02-28T00:56:33;68.38;;;29.55;;
62707;SDS011;48769;51.624;5.886;2024-02-28T00:58:58;93.70;;;29.30;;
62707;SDS011;48769;51.624;5.886;2024-02-28T01:01:24;72.65;;;31.10;;
62707;SDS011;48769;51.624;5.886;2024-02-28T01:03:49;122.53;;;31.90;;
62707;SDS011;48769;51.624;5.886;2024-02-28T01:06:15;236.40;;;34.78;;
62707;SDS011;48769;51.624;5.886;2024-02-28T01:08:41;192.23;;;35.28;;
62707;SDS011;48769;51.624;5.886;2024-02-28T01:11:07;305.92;;;41.00;;
62707;SDS011;48769;51.624;5.886;2024-02-28T01:13:32;212.27;;;40.33;;
62707;SDS011;48769;51.624;5.886;2024-02-28T01:15:57;183.48;;;35.78;;
62707;SDS011;48769;51.624;5.886;2024-02-28T01:18:24;212.52;;;33.17;;
62707;SDS011;48769;51.624;5.886;2024-02-28T01:20:50;147.48;;;35.03;;
62707;SDS011;48769;51.624;5.886;2024-02-28T01:23:17;312.25;;;44.30;;
62707;SDS011;48769;51.624;5.886;2024-02-28T01:25:42;263.92;;;38.60;;
62707;SDS011;48769;51.624;5.886;2024-02-28T01:28:08;190.50;;;38.65;;
62707;SDS011;48769;51.624;5.886;2024-02-28T01:30:33;192.95;;;35.88;;
62707;SDS011;48769;51.624;5.886;2024-02-28T01:32:58;129.15;;;36.70;;
62707;SDS011;48769;51.624;5.886;2024-02-28T01:35:23;143.15;;;35.10;;
62707;SDS011;48769;51.624;5.886;2024-02-28T01:37:49;137.77;;;34.88;;
62707;SDS011;48769;51.624;5.886;2024-02-28T01:40:14;235.68;;;38.42;;
62707;SDS011;48769;51.624;5.886;2024-02-28T01:42:40;208.07;;;38.00;;
62707;SDS011;48769;51.624;5.886;2024-02-28T01:45:05;129.40;;;34.22;;
62707;SDS011;48769;51.624;5.886;2024-02-28T01:47:34;123.68;;;34.03;;
62707;SDS011;48769;51.624;5.886;2024-02-28T01:49:59;107.68;;;31.63;;
62707;SDS011;48769;51.624;5.886;2024-02-28T01:52:25;88.30;;;32.08;;
62707;SDS011;48769;51.624;5.886;2024-02-28T01:54:50;72.43;;;32.35;;
62707;SDS011;48769;51.624;5.886;2024-02-28T01:57:16;61.22;;;28.50;;
62707;SDS011;48769;51.624;5.886;2024-02-28T01:59:41;60.88;;;29.80;;
62707;SDS011;48769;51.624;5.886;2024-02-28T02:02:07;65.95;;;30.33;;
62707;SDS011;48769;51.624;5.886;2024-02-28T02:04:33;68.05;;;30.67;;
62707;SDS011;48769;51.624;5.886;2024-02-28T02:06:58;258.65;;;44.15;;
62707;SDS011;48769;51.624;5.886;2024-02-28T02:09:25;187.38;;;41.80;;
62707;SDS011;48769;51.624;5.886;2024-02-28T02:11:50;225.70;;;43.22;;
62707;SDS011;48769;51.624;5.886;2024-02-28T02:14:16;317.27;;;47.00;;
62707;SDS011;48769;51.624;5.886;2024-02-28T02:16:41;274.50;;;46.22;;
62707;SDS011;48769;51.624;5.886;2024-02-28T02:19:07;289.58;;;47.13;;
62707;SDS011;48769;51.624;5.886;2024-02-28T02:21:34;235.93;;;44.67;;
62707;SDS011;48769;51.624;5.886;2024-02-28T02:24:02;293.98;;;48.13;;
62707;SDS011;48769;51.624;5.886;2024-02-28T02:26:28;267.42;;;44.63;;
62707;SDS011;48769;51.624;5.886;2024-02-28T02:28:53;284.50;;;44.20;;
62707;SDS011;48769;51.624;5.886;2024-02-28T02:31:19;257.00;;;45.47;;
62707;SDS011;48769;51.624;5.886;2024-02-28T02:33:44;245.25;;;43.42;;
62707;SDS011;48769;51.624;5.886;2024-02-28T02:36:09;274.80;;;43.80;;
62707;SDS011;48769;51.624;5.886;2024-02-28T02:38:35;202.23;;;40.80;;
62707;SDS011;48769;51.624;5.886;2024-02-28T02:41:00;265.10;;;44.35;;
62707;SDS011;48769;51.624;5.886;2024-02-28T02:43:26;232.52;;;42.22;;
62707;SDS011;48769;51.624;5.886;2024-02-28T02:45:51;224.63;;;40.72;;
62707;SDS011;48769;51.624;5.886;2024-02-28T02:48:16;180.38;;;40.22;;
62707;SDS011;48769;51.624;5.886;2024-02-28T02:50:42;165.38;;;39.58;;
62707;SDS011;48769;51.624;5.886;2024-02-28T02:53:08;275.75;;;43.33;;
62707;SDS011;48769;51.624;5.886;2024-02-28T02:55:35;239.82;;;43.00;;
62707;SDS011;48769;51.624;5.886;2024-02-28T02:58:00;260.38;;;43.60;;
62707;SDS011;48769;51.624;5.886;2024-02-28T03:00:25;247.82;;;43.88;;
62707;SDS011;48769;51.624;5.886;2024-02-28T03:02:51;190.48;;;38.40;;
62707;SDS011;48769;51.624;5.886;2024-02-28T03:05:16;218.85;;;41.63;;
62707;SDS011;48769;51.624;5.886;2024-02-28T03:07:41;213.25;;;41.42;;
62707;SDS011;48769;51.624;5.886;2024-02-28T03:10:07;193.40;;;41.67;;
62707;SDS011;48769;51.624;5.886;2024-02-28T03:12:32;169.15;;;40.92;;
62707;SDS011;48769;51.624;5.886;2024-02-28T03:14:57;181.00;;;39.47;;
62707;SDS011;48769;51.624;5.886;2024-02-28T03:17:23;168.07;;;39.15;;
62707;SDS011;48769;51.624;5.886;2024-02-28T03:19:48;156.35;;;37.58;;
62707;SDS011;48769;51.624;5.886;2024-02-28T03:22:14;181.80;;;40.70;;
62707;SDS011;48769;51.624;5.886;2024-02-28T03:24:39;158.65;;;39.53;;
62707;SDS011;48769;51.624;5.886;2024-02-28T03:27:05;168.45;;;42.88;;
62707;SDS011;48769;51.624;5.886;2024-02-28T03:29:30;190.55;;;41.75;;
62707;SDS011;48769;51.624;5.886;2024-02-28T03:31:55;218.85;;;43.15;;
62707;SDS011;48769;51.624;5.886;2024-02-28T03:34:21;176.32;;;40.50;;
62707;SDS011;48769;51.624;5.886;2024-02-28T03:36:47;230.43;;;43.38;;
62707;SDS011;48769;51.624;5.886;2024-02-28T03:39:12;220.85;;;43.83;;
62707;SDS011;48769;51.624;5.886;2024-02-28T03:41:38;226.13;;;43.28;;
62707;SDS011;48769;51.624;5.886;2024-02-28T03:44:03;164.38;;;39.58;;
62707;SDS011;48769;51.624;5.886;2024-02-28T03:46:29;205.63;;;41.00;;
62707;SDS011;48769;51.624;5.886;2024-02-28T03:48:55;234.90;;;44.13;;
62707;SDS011;48769;51.624;5.886;2024-02-28T03:51:20;197.45;;;40.60;;
62707;SDS011;48769;51.624;5.886;2024-02-28T03:53:46;193.30;;;40.97;;
62707;SDS011;48769;51.624;5.886;2024-02-28T03:56:11;167.48;;;40.25;;
62707;SDS011;48769;51.624;5.886;2024-02-28T03:58:36;211.25;;;41.75;;
62707;SDS011;48769;51.624;5.886;2024-02-28T04:01:02;204.93;;;44.58;;
62707;SDS011;48769;51.624;5.886;2024-02-28T04:03:27;247.68;;;45.28;;
62707;SDS011;48769;51.624;5.886;2024-02-28T04:05:52;206.95;;;42.80;;
62707;SDS011;48769;51.624;5.886;2024-02-28T04:08:18;212.70;;;44.38;;
62707;SDS011;48769;51.624;5.886;2024-02-28T04:10:43;276.27;;;47.40;;
62707;SDS011;48769;51.624;5.886;2024-02-28T04:13:08;181.45;;;42.95;;
62707;SDS011;48769;51.624;5.886;2024-02-28T04:15:34;263.02;;;50.05;;
62707;SDS011;48769;51.624;5.886;2024-02-28T04:17:59;195.73;;;42.75;;
62707;SDS011;48769;51.624;5.886;2024-02-28T04:20:25;273.63;;;47.97;;
62707;SDS011;48769;51.624;5.886;2024-02-28T04:22:50;227.05;;;46.40;;
62707;SDS011;48769;51.624;5.886;2024-02-28T04:25:15;241.82;;;48.22;;
62707;SDS011;48769;51.624;5.886;2024-02-28T04:27:41;203.93;;;45.80;;
62707;SDS011;48769;51.624;5.886;2024-02-28T04:30:06;162.63;;;45.38;;
62707;SDS011;48769;51.624;5.886;2024-02-28T04:32:32;184.15;;;45.42;;
62707;SDS011;48769;51.624;5.886;2024-02-28T04:34:57;165.73;;;46.20;;
62707;SDS011;48769;51.624;5.886;2024-02-28T04:37:22;200.90;;;48.00;;
62707;SDS011;48769;51.624;5.886;2024-02-28T04:39:48;151.13;;;44.50;;
62707;SDS011;48769;51.624;5.886;2024-02-28T04:42:15;112.50;;;43.25;;
62707;SDS011;48769;51.624;5.886;2024-02-28T04:44:41;123.65;;;44.20;;
62707;SDS011;48769;51.624;5.886;2024-02-28T04:47:06;111.57;;;43.65;;
62707;SDS011;48769;51.624;5.886;2024-02-28T04:49:32;114.65;;;42.97;;
62707;SDS011;48769;51.624;5.886;2024-02-28T04:51:57;138.98;;;45.28;;
62707;SDS011;48769;51.624;5.886;2024-02-28T04:54:23;107.85;;;43.30;;
62707;SDS011;48769;51.624;5.886;2024-02-28T04:56:49;112.95;;;44.05;;
62707;SDS011;48769;51.624;5.886;2024-02-28T04:59:16;109.28;;;41.90;;
62707;SDS011;48769;51.624;5.886;2024-02-28T05:01:41;112.70;;;43.22;;
62707;SDS011;48769;51.624;5.886;2024-02-28T05:04:10;99.05;;;42.30;;
62707;SDS011;48769;51.624;5.886;2024-02-28T05:06:36;126.35;;;41.85;;
62707;SDS011;48769;51.624;5.886;2024-02-28T05:09:01;101.72;;;43.17;;
62707;SDS011;48769;51.624;5.886;2024-02-28T05:11:27;101.00;;;40.88;;
62707;SDS011;48769;51.624;5.886;2024-02-28T05:13:52;135.85;;;44.30;;
62707;SDS011;48769;51.624;5.886;2024-02-28T05:16:17;106.68;;;43.47;;
62707;SDS011;48769;51.624;5.886;2024-02-28T05:18:46;117.57;;;45.03;;
62707;SDS011;48769;51.624;5.886;2024-02-28T05:21:12;101.03;;;44.55;;
62707;SDS011;48769;51.624;5.886;2024-02-28T05:23:38;148.75;;;44.92;;
62707;SDS011;48769;51.624;5.886;2024-02-28T05:26:03;121.93;;;46.15;;
62707;SDS011;48769;51.624;5.886;2024-02-28T05:28:30;110.65;;;45.58;;
62707;SDS011;48769;51.624;5.886;2024-02-28T05:30:56;110.40;;;47.20;;
62707;SDS011;48769;51.624;5.886;2024-02-28T05:33:22;118.78;;;44.72;;
62707;SDS011;48769;51.624;5.886;2024-02-28T05:35:47;107.68;;;46.50;;
62707;SDS011;48769;51.624;5.886;2024-02-28T05:38:12;109.30;;;45.75;;
62707;SDS011;48769;51.624;5.886;2024-02-28T05:40:38;106.38;;;46.53;;
62707;SDS011;48769;51.624;5.886;2024-02-28T05:43:03;92.82;;;45.15;;
62707;SDS011;48769;51.624;5.886;2024-02-28T05:45:29;105.38;;;44.72;;
62707;SDS011;48769;51.624;5.886;2024-02-28T05:47:54;120.53;;;46.80;;
62707;SDS011;48769;51.624;5.886;2024-02-28T05:50:20;118.43;;;48.05;;
62707;SDS011;48769;51.624;5.886;2024-02-28T05:52:45;142.18;;;48.88;;
62707;SDS011;48769;51.624;5.886;2024-02-28T05:55:10;116.18;;;47.90;;
62707;SDS011;48769;51.624;5.886;2024-02-28T05:57:36;143.30;;;49.88;;
62707;SDS011;48769;51.624;5.886;2024-02-28T06:00:01;128.50;;;47.33;;
62707;SDS011;48769;51.624;5.886;2024-02-28T06:02:34;157.48;;;48.80;;
62707;SDS011;48769;51.624;5.886;2024-02-28T06:05:00;183.05;;;49.78;;
62707;SDS011;48769;51.624;5.886;2024-02-28T06:07:25;199.52;;;49.17;;
62707;SDS011;48769;51.624;5.886;2024-02-28T06:09:50;139.07;;;48.30;;
62707;SDS011;48769;51.624;5.886;2024-02-28T06:12:16;196.60;;;51.00;;
62707;SDS011;48769;51.624;5.886;2024-02-28T06:14:41;263.60;;;52.90;;
62707;SDS011;48769;51.624;5.886;2024-02-28T06:17:06;169.65;;;52.00;;
62707;SDS011;48769;51.624;5.886;2024-02-28T06:19:32;162.45;;;50.00;;
62707;SDS011;48769;51.624;5.886;2024-02-28T06:21:57;145.43;;;48.85;;
62707;SDS011;48769;51.624;5.886;2024-02-28T06:24:22;199.77;;;54.08;;
62707;SDS011;48769;51.624;5.886;2024-02-28T06:26:48;194.50;;;51.55;;
62707;SDS011;48769;51.624;5.886;2024-02-28T06:29:13;161.13;;;50.03;;
62707;SDS011;48769;51.624;5.886;2024-02-28T06:31:40;168.48;;;51.20;;
62707;SDS011;48769;51.624;5.886;2024-02-28T06:34:05;160.27;;;51.72;;
62707;SDS011;48769;51.624;5.886;2024-02-28T06:36:30;186.13;;;51.53;;
62707;SDS011;48769;51.624;5.886;2024-02-28T06:38:56;153.02;;;52.60;;
62707;SDS011;48769;51.624;5.886;2024-02-28T06:41:23;146.40;;;49.65;;
62707;SDS011;48769;51.624;5.886;2024-02-28T06:43:48;178.93;;;53.60;;
62707;SDS011;48769;51.624;5.886;2024-02-28T06:46:13;138.40;;;50.85;;
62707;SDS011;48769;51.624;5.886;2024-02-28T06:48:38;132.52;;;51.80;;
62707;SDS011;48769;51.624;5.886;2024-02-28T06:51:04;143.73;;;51.40;;
62707;SDS011;48769;51.624;5.886;2024-02-28T06:53:29;133.60;;;49.38;;
62707;SDS011;48769;51.624;5.886;2024-02-28T06:55:54;125.28;;;50.58;;
62707;SDS011;48769;51.624;5.886;2024-02-28T06:58:20;130.98;;;49.70;;
62707;SDS011;48769;51.624;5.886;2024-02-28T07:00:46;122.25;;;50.95;;
62707;SDS011;48769;51.624;5.886;2024-02-28T07:03:13;125.13;;;51.08;;
62707;SDS011;48769;51.624;5.886;2024-02-28T07:05:38;126.65;;;50.05;;
62707;SDS011;48769;51.624;5.886;2024-02-28T07:08:03;114.18;;;49.05;;
62707;SDS011;48769;51.624;5.886;2024-02-28T07:10:29;118.15;;;50.72;;
62707;SDS011;48769;51.624;5.886;2024-02-28T07:12:54;113.63;;;48.25;;
62707;SDS011;48769;51.624;5.886;2024-02-28T07:15:20;106.70;;;48.72;;
62707;SDS011;48769;51.624;5.886;2024-02-28T07:17:46;117.63;;;48.85;;
62707;SDS011;48769;51.624;5.886;2024-02-28T07:20:20;111.80;;;48.97;;
62707;SDS011;48769;51.624;5.886;2024-02-28T07:22:45;114.72;;;47.97;;
62707;SDS011;48769;51.624;5.886;2024-02-28T07:25:11;111.20;;;47.10;;
62707;SDS011;48769;51.624;5.886;2024-02-28T07:27:36;110.30;;;47.08;;
62707;SDS011;48769;51.624;5.886;2024-02-28T07:30:02;103.53;;;47.05;;
62707;SDS011;48769;51.624;5.886;2024-02-28T07:32:31;92.13;;;44.85;;
62707;SDS011;48769;51.624;5.886;2024-02-28T07:34:59;100.53;;;45.00;;
62707;SDS011;48769;51.624;5.886;2024-02-28T07:37:28;92.95;;;44.65;;
62707;SDS011;48769;51.624;5.886;2024-02-28T07:39:53;95.07;;;43.47;;
62707;SDS011;48769;51.624;5.886;2024-02-28T07:42:19;91.30;;;44.65;;
62707;SDS011;48769;51.624;5.886;2024-02-28T07:44:44;84.63;;;42.53;;
62707;SDS011;48769;51.624;5.886;2024-02-28T07:47:09;82.50;;;41.60;;
62707;SDS011;48769;51.624;5.886;2024-02-28T07:49:35;83.72;;;41.00;;
62707;SDS011;48769;51.624;5.886;2024-02-28T07:52:00;94.75;;;43.58;;
62707;SDS011;48769;51.624;5.886;2024-02-28T07:54:26;85.78;;;42.80;;
62707;SDS011;48769;51.624;5.886;2024-02-28T07:56:52;96.95;;;45.90;;
62707;SDS011;48769;51.624;5.886;2024-02-28T07:59:18;79.95;;;41.13;;
62707;SDS011;48769;51.624;5.886;2024-02-28T08:01:43;87.45;;;43.60;;
62707;SDS011;48769;51.624;5.886;2024-02-28T08:04:09;80.65;;;40.92;;
62707;SDS011;48769;51.624;5.886;2024-02-28T08:06:35;83.03;;;41.38;;
62707;SDS011;48769;51.624;5.886;2024-02-28T08:09:00;84.05;;;44.35;;
62707;SDS011;48769;51.624;5.886;2024-02-28T08:11:26;82.43;;;40.88;;
62707;SDS011;48769;51.624;5.886;2024-02-28T08:13:51;83.57;;;43.53;;
62707;SDS011;48769;51.624;5.886;2024-02-28T08:16:17;82.53;;;40.90;;
62707;SDS011;48769;51.624;5.886;2024-02-28T08:18:42;83.97;;;43.25;;
62707;SDS011;48769;51.624;5.886;2024-02-28T08:21:08;87.57;;;42.20;;
62707;SDS011;48769;51.624;5.886;2024-02-28T08:23:34;79.45;;;41.40;;
62707;SDS011;48769;51.624;5.886;2024-02-28T08:25:59;89.07;;;44.75;;
62707;SDS011;48769;51.624;5.886;2024-02-28T08:28:24;92.78;;;43.63;;
62707;SDS011;48769;51.624;5.886;2024-02-28T08:30:50;82.45;;;41.55;;
62707;SDS011;48769;51.624;5.886;2024-02-28T08:33:16;80.63;;;39.25;;
62707;SDS011;48769;51.624;5.886;2024-02-28T08:35:41;83.35;;;39.83;;
62707;SDS011;48769;51.624;5.886;2024-02-28T08:38:08;83.68;;;39.88;;
62707;SDS011;48769;51.624;5.886;2024-02-28T08:40:33;78.30;;;41.40;;
62707;SDS011;48769;51.624;5.886;2024-02-28T08:42:58;83.70;;;42.38;;
62707;SDS011;48769;51.624;5.886;2024-02-28T08:45:23;78.18;;;40.33;;
62707;SDS011;48769;51.624;5.886;2024-02-28T08:47:49;71.07;;;38.80;;
62707;SDS011;48769;51.624;5.886;2024-02-28T08:50:14;63.60;;;36.35;;
62707;SDS011;48769;51.624;5.886;2024-02-28T08:52:39;68.72;;;35.67;;
62707;SDS011;48769;51.624;5.886;2024-02-28T08:55:05;66.35;;;38.58;;
62707;SDS011;48769;51.624;5.886;2024-02-28T08:57:31;65.22;;;36.17;;
62707;SDS011;48769;51.624;5.886;2024-02-28T08:59:56;66.63;;;37.53;;
62707;SDS011;48769;51.624;5.886;2024-02-28T09:02:22;76.15;;;39.70;;
62707;SDS011;48769;51.624;5.886;2024-02-28T09:04:47;69.60;;;38.70;;
62707;SDS011;48769;51.624;5.886;2024-02-28T09:07:16;64.15;;;38.63;;
62707;SDS011;48769;51.624;5.886;2024-02-28T09:09:44;61.25;;;36.40;;
62707;SDS011;48769;51.624;5.886;2024-02-28T09:12:10;60.17;;;35.40;;
62707;SDS011;48769;51.624;5.886;2024-02-28T09:14:35;57.75;;;34.80;;
62707;SDS011;48769;51.624;5.886;2024-02-28T09:17:01;57.78;;;34.97;;
62707;SDS011;48769;51.624;5.886;2024-02-28T09:19:29;55.70;;;34.83;;
62707;SDS011;48769;51.624;5.886;2024-02-28T09:21:57;57.38;;;34.22;;
62707;SDS011;48769;51.624;5.886;2024-02-28T09:24:26;55.22;;;34.03;;
62707;SDS011;48769;51.624;5.886;2024-02-28T09:26:51;56.65;;;34.75;;
62707;SDS011;48769;51.624;5.886;2024-02-28T09:29:17;48.65;;;31.48;;
62707;SDS011;48769;51.624;5.886;2024-02-28T09:31:42;49.13;;;33.92;;
62707;SDS011;48769;51.624;5.886;2024-02-28T09:34:08;50.65;;;31.65;;
62707;SDS011;48769;51.624;5.886;2024-02-28T09:36:43;53.05;;;33.33;;
62707;SDS011;48769;51.624;5.886;2024-02-28T09:39:10;50.15;;;34.15;;
62707;SDS011;48769;51.624;5.886;2024-02-28T09:41:37;52.25;;;33.10;;
62707;SDS011;48769;51.624;5.886;2024-02-28T09:44:03;53.45;;;32.55;;
62707;SDS011;48769;51.624;5.886;2024-02-28T09:46:31;50.28;;;32.80;;
62707;SDS011;48769;51.624;5.886;2024-02-28T09:48:59;54.10;;;33.25;;
62707;SDS011;48769;51.624;5.886;2024-02-28T09:51:28;48.80;;;32.75;;
62707;SDS011;48769;51.624;5.886;2024-02-28T09:53:58;51.22;;;33.65;;
62707;SDS011;48769;51.624;5.886;2024-02-28T09:56:25;57.33;;;33.55;;
62707;SDS011;48769;51.624;5.886;2024-02-28T09:58:51;54.50;;;33.70;;
62707;SDS011;48769;51.624;5.886;2024-02-28T10:01:16;54.83;;;34.28;;
62707;SDS011;48769;51.624;5.886;2024-02-28T10:03:45;50.90;;;33.95;;
62707;SDS011;48769;51.624;5.886;2024-02-28T10:06:15;51.63;;;33.85;;
62707;SDS011;48769;51.624;5.886;2024-02-28T10:08:40;53.45;;;35.53;;
62707;SDS011;48769;51.624;5.886;2024-02-28T10:11:06;51.30;;;34.03;;
62707;SDS011;48769;51.624;5.886;2024-02-28T10:13:31;57.50;;;36.30;;
62707;SDS011;48769;51.624;5.886;2024-02-28T10:15:56;54.10;;;33.65;;
62707;SDS011;48769;51.624;5.886;2024-02-28T10:18:22;54.05;;;32.35;;
62707;SDS011;48769;51.624;5.886;2024-02-28T10:20:47;55.15;;;35.78;;
62707;SDS011;48769;51.624;5.886;2024-02-28T10:23:13;54.45;;;35.22;;
62707;SDS011;48769;51.624;5.886;2024-02-28T10:25:42;52.60;;;35.47;;
62707;SDS011;48769;51.624;5.886;2024-02-28T10:28:09;52.25;;;34.03;;
62707;SDS011;48769;51.624;5.886;2024-02-28T10:30:38;53.35;;;34.08;;
62707;SDS011;48769;51.624;5.886;2024-02-28T10:33:04;51.95;;;35.00;;
62707;SDS011;48769;51.624;5.886;2024-02-28T10:35:30;47.78;;;32.85;;
62707;SDS011;48769;51.624;5.886;2024-02-28T10:37:56;49.83;;;33.15;;
62707;SDS011;48769;51.624;5.886;2024-02-28T10:40:21;46.75;;;31.85;;
62707;SDS011;48769;51.624;5.886;2024-02-28T10:42:47;49.20;;;32.55;;
62707;SDS011;48769;51.624;5.886;2024-02-28T10:45:13;48.17;;;33.50;;
62707;SDS011;48769;51.624;5.886;2024-02-28T10:47:40;53.38;;;33.42;;
62707;SDS011;48769;51.624;5.886;2024-02-28T10:50:06;51.60;;;32.30;;
62707;SDS011;48769;51.624;5.886;2024-02-28T10:52:38;48.35;;;33.38;;
62707;SDS011;48769;51.624;5.886;2024-02-28T10:55:08;50.92;;;32.72;;
62707;SDS011;48769;51.624;5.886;2024-02-28T10:57:34;54.28;;;32.50;;
62707;SDS011;48769;51.624;5.886;2024-02-28T11:00:01;49.50;;;34.20;;
62707;SDS011;48769;51.624;5.886;2024-02-28T11:04:59;50.17;;;31.58;;
62707;SDS011;48769;51.624;5.886;2024-02-28T11:07:44;46.50;;;32.30;;
62707;SDS011;48769;51.624;5.886;2024-02-28T11:10:09;48.08;;;31.08;;
62707;SDS011;48769;51.624;5.886;2024-02-28T11:12:38;48.95;;;32.10;;
62707;SDS011;48769;51.624;5.886;2024-02-28T11:15:04;46.67;;;30.58;;
62707;SDS011;48769;51.624;5.886;2024-02-28T11:17:32;48.67;;;29.85;;
62707;SDS011;48769;51.624;5.886;2024-02-28T11:19:58;43.00;;;30.85;;
62707;SDS011;48769;51.624;5.886;2024-02-28T11:22:27;47.75;;;30.70;;
62707;SDS011;48769;51.624;5.886;2024-02-28T11:24:53;41.35;;;29.17;;
62707;SDS011;48769;51.624;5.886;2024-02-28T11:27:20;48.00;;;29.27;;
62707;SDS011;48769;51.624;5.886;2024-02-28T11:29:45;52.10;;;30.42;;
62707;SDS011;48769;51.624;5.886;2024-02-28T11:32:12;46.50;;;30.42;;
62707;SDS011;48769;51.624;5.886;2024-02-28T11:34:38;43.00;;;30.40;;
62707;SDS011;48769;51.624;5.886;2024-02-28T11:37:08;47.22;;;31.40;;
62707;SDS011;48769;51.624;5.886;2024-02-28T11:39:34;50.08;;;30.00;;
62707;SDS011;48769;51.624;5.886;2024-02-28T11:42:09;51.70;;;32.15;;
62707;SDS011;48769;51.624;5.886;2024-02-28T11:44:52;49.55;;;32.03;;
62707;SDS011;48769;51.624;5.886;2024-02-28T11:47:19;49.20;;;30.95;;
62707;SDS011;48769;51.624;5.886;2024-02-28T11:49:45;46.42;;;32.13;;
62707;SDS011;48769;51.624;5.886;2024-02-28T11:52:10;48.78;;;31.48;;
62707;SDS011;48769;51.624;5.886;2024-02-28T11:54:36;47.58;;;32.13;;
62707;SDS011;48769;51.624;5.886;2024-02-28T11:57:02;48.63;;;32.53;;
62707;SDS011;48769;51.624;5.886;2024-02-28T11:59:28;56.08;;;33.88;;
62707;SDS011;48769;51.624;5.886;2024-02-28T12:01:54;60.85;;;36.47;;
62707;SDS011;48769;51.624;5.886;2024-02-28T12:04:20;58.53;;;35.67;;
62707;SDS011;48769;51.624;5.886;2024-02-28T12:06:49;57.85;;;33.92;;
62707;SDS011;48769;51.624;5.886;2024-02-28T12:09:14;60.00;;;35.97;;
62707;SDS011;48769;51.624;5.886;2024-02-28T12:11:40;59.65;;;37.13;;
62707;SDS011;48769;51.624;5.886;2024-02-28T12:14:08;61.53;;;37.10;;
62707;SDS011;48769;51.624;5.886;2024-02-28T12:16:37;60.33;;;37.70;;
62707;SDS011;48769;51.624;5.886;2024-02-28T12:19:07;57.78;;;36.10;;
62707;SDS011;48769;51.624;5.886;2024-02-28T12:21:36;57.17;;;37.10;;
62707;SDS011;48769;51.624;5.886;2024-02-28T12:24:02;63.78;;;38.70;;
62707;SDS011;48769;51.624;5.886;2024-02-28T12:26:29;68.85;;;39.78;;
62707;SDS011;48769;51.624;5.886;2024-02-28T12:28:55;70.38;;;40.50;;
62707;SDS011;48769;51.624;5.886;2024-02-28T12:31:20;68.72;;;41.13;;
62707;SDS011;48769;51.624;5.886;2024-02-28T12:33:46;64.18;;;38.15;;
62707;SDS011;48769;51.624;5.886;2024-02-28T12:36:12;71.20;;;41.20;;
62707;SDS011;48769;51.624;5.886;2024-02-28T12:38:38;72.22;;;40.97;;
62707;SDS011;48769;51.624;5.886;2024-02-28T12:41:05;67.38;;;41.65;;
62707;SDS011;48769;51.624;5.886;2024-02-28T12:43:31;67.47;;;41.22;;
62707;SDS011;48769;51.624;5.886;2024-02-28T12:45:57;67.50;;;41.20;;
62707;SDS011;48769;51.624;5.886;2024-02-28T12:48:23;68.20;;;41.35;;
62707;SDS011;48769;51.624;5.886;2024-02-28T12:50:48;65.00;;;40.03;;
62707;SDS011;48769;51.624;5.886;2024-02-28T12:53:13;65.05;;;39.88;;
62707;SDS011;48769;51.624;5.886;2024-02-28T12:55:39;62.35;;;37.63;;
62707;SDS011;48769;51.624;5.886;2024-02-28T12:58:04;75.40;;;40.03;;
62707;SDS011;48769;51.624;5.886;2024-02-28T13:00:30;66.63;;;39.38;;
62707;SDS011;48769;51.624;5.886;2024-02-28T13:02:56;64.20;;;38.60;;
62707;SDS011;48769;51.624;5.886;2024-02-28T13:05:21;60.67;;;37.08;;
62707;SDS011;48769;51.624;5.886;2024-02-28T13:07:46;52.50;;;33.53;;
62707;SDS011;48769;51.624;5.886;2024-02-28T13:10:12;54.03;;;30.98;;
62707;SDS011;48769;51.624;5.886;2024-02-28T13:12:37;54.58;;;31.55;;
62707;SDS011;48769;51.624;5.886;2024-02-28T13:15:03;46.60;;;29.65;;
62707;SDS011;48769;51.624;5.886;2024-02-28T13:17:30;52.65;;;31.70;;
62707;SDS011;48769;51.624;5.886;2024-02-28T13:19:56;54.92;;;29.00;;
62707;SDS011;48769;51.624;5.886;2024-02-28T13:22:21;51.97;;;31.27;;
62707;SDS011;48769;51.624;5.886;2024-02-28T13:24:46;56.75;;;30.95;;
62707;SDS011;48769;51.624;5.886;2024-02-28T13:27:12;54.22;;;31.27;;
62707;SDS011;48769;51.624;5.886;2024-02-28T13:29:37;49.13;;;30.35;;
62707;SDS011;48769;51.624;5.886;2024-02-28T13:32:02;52.08;;;30.25;;
62707;SDS011;48769;51.624;5.886;2024-02-28T13:34:28;48.55;;;29.52;;
62707;SDS011;48769;51.624;5.886;2024-02-28T13:36:54;46.97;;;28.63;;
62707;SDS011;48769;51.624;5.886;2024-02-28T13:39:20;53.05;;;30.20;;
62707;SDS011;48769;51.624;5.886;2024-02-28T13:41:48;44.78;;;28.98;;
62707;SDS011;48769;51.624;5.886;2024-02-28T13:44:16;54.17;;;30.38;;
62707;SDS011;48769;51.624;5.886;2024-02-28T13:46:43;48.85;;;28.42;;
62707;SDS011;48769;51.624;5.886;2024-02-28T13:49:08;47.85;;;28.83;;
62707;SDS011;48769;51.624;5.886;2024-02-28T13:51:34;56.40;;;31.40;;
62707;SDS011;48769;51.624;5.886;2024-02-28T13:53:59;52.97;;;28.35;;
62707;SDS011;48769;51.624;5.886;2024-02-28T13:56:24;52.05;;;28.48;;
62707;SDS011;48769;51.624;5.886;2024-02-28T13:58:50;48.70;;;27.67;;
62707;SDS011;48769;51.624;5.886;2024-02-28T14:01:15;46.55;;;27.05;;
62707;SDS011;48769;51.624;5.886;2024-02-28T14:03:40;54.83;;;26.52;;
62707;SDS011;48769;51.624;5.886;2024-02-28T14:06:06;45.42;;;27.13;;
62707;SDS011;48769;51.624;5.886;2024-02-28T14:08:31;49.63;;;27.85;;
62707;SDS011;48769;51.624;5.886;2024-02-28T14:10:56;49.65;;;27.05;;